岡山グライダークラブ活動状況掲示板あなたは無料カウンター人目の訪問者です

岡山グライダークラブ
岡山市浦安南町639-1 岡南飛行場
 使用機:シャイベ式 SF25C型 ファルケ   JA2330
      ヴァレンティン式17E型 タイフーン  JA2342
 練習日:毎日曜日  クラブルーム:電話 086-265-1810
この掲示板は岡山グライダークラブの活動状況をお知らせする掲示板です。
!!!この掲示板は投稿規制をしています。!!!
クラブ関連各種情報は 岡山グライダークラブクラブルーム      を       .
  ブリーフイング情報は  岡山グライダークラブブリーフィングルーム  をご覧下さい。 .
※写真はクリックすると拡大して見ることが出来ます。
岡南飛行場へのアクセス等は 岡南飛行場管理事務所 をご覧ください。
クラブの ホームページ ができました。

 
03月08日
by OGC at 2020/3/8(日) 23:17:38 No.20200308231531  削除コメント
1024 x 768 x 65,921バイト
No.1

03月08日
本日の参加者
  会員      14名
  その他      1名


@本日の様子


METAR
RJBK 080000Z 33003KT 10KM -SHRA FEW015ST SCT030CU BKN050SC 09/08 Q1014 A2996
RJOB 080000Z 36006KT 320V030 4500 -SHRA BR BCFG FEW000 SCT006 BKN015 07/07 Q1014
RJOT 080000Z 06007KT 020V090 7000 VCSH FEW001 SCT005 BKN010 08/08 Q1014
RJOA 080000Z 35009KT 330V030 9999 FEW001 SCT015 09/07 Q1014
TAF
RJOB 072307Z 0800/0906 02008KT 8000 -SHRA FEW003 SCT008 BKN015
     TEMPO 0800/0803 4000 -SHRA BR FEW001 SCT003 BKN008
RJOT 072305Z 0800/0906 03008KT 9999 FEW015 BKN035
     TEMPO 0800/0803 3000 -SHRA BR BCFG FEW000 SCT003 BKN008
RJOA 072306Z 0800/0906 35010KT 9999 FEW015 BKN030
     BECMG 0804/0806 01006KT
     BECMG 0812/0815 34005KT
     BECMG 0818/0821 12007KT


午前中は霧雨、午後から雲が消え嘘のように日差しが射し、その後、積雲が沢山出来て、
みんな笑顔でフライトから帰ってきて滑空時間を延ばしていました。

解散    18:10

1番機  12:10離陸 撤収機  17:40着陸 

SF25C JA2330 ファルケ     09Flt.3h10min  
17E   JA2342 タイフーン    00Flt.0h00min  
合計                    09Flt.3h10min

    << 戻る || ホームページ || 最新の掲示板へ